sensor_id;sensor_type;location;lat;lon;timestamp;pressure;altitude;pressure_sealevel;temperature;humidity
23261;BME280;11799;47.740;-3.390;2023-03-03T00:01:26;102309.78;;;5.94;69.99
23261;BME280;11799;47.740;-3.390;2023-03-03T00:03:53;102307.97;;;5.96;69.90
23261;BME280;11799;47.740;-3.390;2023-03-03T00:06:19;102308.88;;;5.95;69.74
23261;BME280;11799;47.740;-3.390;2023-03-03T00:08:45;102303.47;;;6.00;70.13
23261;BME280;11799;47.740;-3.390;2023-03-03T00:11:11;102303.53;;;5.98;70.26
23261;BME280;11799;47.740;-3.390;2023-03-03T00:16:34;102297.25;;;6.02;69.70
23261;BME280;11799;47.740;-3.390;2023-03-03T00:18:57;102306.00;;;6.03;70.31
23261;BME280;11799;47.740;-3.390;2023-03-03T00:21:39;102305.94;;;6.04;69.96
23261;BME280;11799;47.740;-3.390;2023-03-03T00:26:47;102288.31;;;6.08;70.01
23261;BME280;11799;47.740;-3.390;2023-03-03T00:32:15;102285.69;;;6.08;69.94
23261;BME280;11799;47.740;-3.390;2023-03-03T00:34:43;102288.28;;;6.09;69.72
23261;BME280;11799;47.740;-3.390;2023-03-03T00:37:28;102291.81;;;6.08;69.59
23261;BME280;11799;47.740;-3.390;2023-03-03T00:40:10;102297.06;;;6.08;69.86
23261;BME280;11799;47.740;-3.390;2023-03-03T00:42:38;102294.44;;;6.08;69.68
23261;BME280;11799;47.740;-3.390;2023-03-03T00:45:20;102297.91;;;6.09;69.71
23261;BME280;11799;47.740;-3.390;2023-03-03T00:47:48;102287.38;;;6.10;69.55
23261;BME280;11799;47.740;-3.390;2023-03-03T00:53:15;102289.81;;;6.15;69.93
23261;BME280;11799;47.740;-3.390;2023-03-03T00:55:42;102288.09;;;6.14;70.17
23261;BME280;11799;47.740;-3.390;2023-03-03T00:58:09;102292.50;;;6.13;69.76
23261;BME280;11799;47.740;-3.390;2023-03-03T01:00:40;102286.34;;;6.14;69.85
23261;BME280;11799;47.740;-3.390;2023-03-03T01:03:12;102284.63;;;6.13;70.04
23261;BME280;11799;47.740;-3.390;2023-03-03T01:05:38;102295.88;;;6.17;69.90
23261;BME280;11799;47.740;-3.390;2023-03-03T01:08:04;102285.38;;;6.17;69.79
23261;BME280;11799;47.740;-3.390;2023-03-03T01:10:33;102294.09;;;6.17;70.31
23261;BME280;11799;47.740;-3.390;2023-03-03T01:13:00;102291.47;;;6.17;70.36
23261;BME280;11799;47.740;-3.390;2023-03-03T01:15:26;102287.03;;;6.19;70.29
23261;BME280;11799;47.740;-3.390;2023-03-03T01:17:53;102285.31;;;6.18;70.27
23261;BME280;11799;47.740;-3.390;2023-03-03T01:20:19;102284.41;;;6.19;69.65
23261;BME280;11799;47.740;-3.390;2023-03-03T01:22:45;102289.66;;;6.19;70.24
23261;BME280;11799;47.740;-3.390;2023-03-03T01:25:11;102287.91;;;6.20;70.11
23261;BME280;11799;47.740;-3.390;2023-03-03T01:27:37;102280.94;;;6.19;70.40
23261;BME280;11799;47.740;-3.390;2023-03-03T01:30:04;102277.41;;;6.20;69.89
23261;BME280;11799;47.740;-3.390;2023-03-03T01:32:30;102280.13;;;6.17;69.67
23261;BME280;11799;47.740;-3.390;2023-03-03T01:34:56;102284.47;;;6.18;69.80
23261;BME280;11799;47.740;-3.390;2023-03-03T01:37:22;102282.69;;;6.18;69.38
23261;BME280;11799;47.740;-3.390;2023-03-03T01:39:49;102273.97;;;6.18;69.95
23261;BME280;11799;47.740;-3.390;2023-03-03T01:42:15;102279.28;;;6.16;69.57
23261;BME280;11799;47.740;-3.390;2023-03-03T01:44:42;102278.38;;;6.17;69.38
23261;BME280;11799;47.740;-3.390;2023-03-03T01:47:14;102281.84;;;6.18;69.79
23261;BME280;11799;47.740;-3.390;2023-03-03T01:49:48;102280.13;;;6.17;70.12
23261;BME280;11799;47.740;-3.390;2023-03-03T01:52:30;102274.94;;;6.15;70.20
23261;BME280;11799;47.740;-3.390;2023-03-03T01:55:04;102278.41;;;6.16;69.83
23261;BME280;11799;47.740;-3.390;2023-03-03T01:57:37;102282.00;;;6.13;69.99
23261;BME280;11799;47.740;-3.390;2023-03-03T02:00:05;102272.47;;;6.11;69.43
23261;BME280;11799;47.740;-3.390;2023-03-03T02:02:39;102276.06;;;6.08;69.65
23261;BME280;11799;47.740;-3.390;2023-03-03T02:05:06;102277.16;;;6.03;69.50
23261;BME280;11799;47.740;-3.390;2023-03-03T02:07:32;102266.81;;;5.98;69.77
23261;BME280;11799;47.740;-3.390;2023-03-03T02:10:00;102275.59;;;5.97;69.83
23261;BME280;11799;47.740;-3.390;2023-03-03T02:12:40;102267.78;;;5.95;69.55
23261;BME280;11799;47.740;-3.390;2023-03-03T02:15:29;102272.28;;;5.92;69.92
23261;BME280;11799;47.740;-3.390;2023-03-03T02:18:09;102262.75;;;5.89;70.12
23261;BME280;11799;47.740;-3.390;2023-03-03T02:20:49;102271.50;;;5.88;70.56
23261;BME280;11799;47.740;-3.390;2023-03-03T02:23:41;102265.44;;;5.86;70.35
23261;BME280;11799;47.740;-3.390;2023-03-03T02:26:15;102258.53;;;5.84;70.29
23261;BME280;11799;47.740;-3.390;2023-03-03T02:28:41;102267.31;;;5.83;70.57
23261;BME280;11799;47.740;-3.390;2023-03-03T02:31:13;102259.47;;;5.83;70.62
23261;BME280;11799;47.740;-3.390;2023-03-03T02:33:43;102258.66;;;5.81;70.86
23261;BME280;11799;47.740;-3.390;2023-03-03T02:36:18;102258.84;;;5.76;70.80
23261;BME280;11799;47.740;-3.390;2023-03-03T02:41:35;102251.88;;;5.75;70.93
23261;BME280;11799;47.740;-3.390;2023-03-03T02:44:36;102250.19;;;5.74;71.31
23261;BME280;11799;47.740;-3.390;2023-03-03T02:46:55;102247.56;;;5.74;71.32
23261;BME280;11799;47.740;-3.390;2023-03-03T02:49:24;102252.78;;;5.74;71.32
23261;BME280;11799;47.740;-3.390;2023-03-03T02:51:51;102249.22;;;5.77;71.27
23261;BME280;11799;47.740;-3.390;2023-03-03T02:54:19;102244.03;;;5.75;71.89
23261;BME280;11799;47.740;-3.390;2023-03-03T02:56:45;102252.69;;;5.77;71.77
23261;BME280;11799;47.740;-3.390;2023-03-03T02:59:10;102248.34;;;5.76;71.58
23261;BME280;11799;47.740;-3.390;2023-03-03T03:01:42;102246.66;;;5.75;71.79
23261;BME280;11799;47.740;-3.390;2023-03-03T03:04:14;102245.66;;;5.78;72.33
23261;BME280;11799;47.740;-3.390;2023-03-03T03:06:43;102241.34;;;5.77;72.14
23261;BME280;11799;47.740;-3.390;2023-03-03T03:09:11;102244.75;;;5.79;71.99
23261;BME280;11799;47.740;-3.390;2023-03-03T03:11:37;102247.34;;;5.79;71.73
23261;BME280;11799;47.740;-3.390;2023-03-03T03:14:04;102249.94;;;5.80;71.79
23261;BME280;11799;47.740;-3.390;2023-03-03T03:16:31;102242.06;;;5.80;71.87
23261;BME280;11799;47.740;-3.390;2023-03-03T03:18:58;102245.53;;;5.81;71.91
23261;BME280;11799;47.740;-3.390;2023-03-03T03:21:24;102245.59;;;5.79;71.81
23261;BME280;11799;47.740;-3.390;2023-03-03T03:23:50;102243.84;;;5.80;71.71
23261;BME280;11799;47.740;-3.390;2023-03-03T03:26:15;102246.50;;;5.78;71.93
23261;BME280;11799;47.740;-3.390;2023-03-03T03:28:42;102240.34;;;5.79;72.27
23261;BME280;11799;47.740;-3.390;2023-03-03T03:31:08;102239.50;;;5.79;72.22
23261;BME280;11799;47.740;-3.390;2023-03-03T03:33:35;102235.06;;;5.81;72.38
23261;BME280;11799;47.740;-3.390;2023-03-03T03:36:01;102229.75;;;5.82;72.38
23261;BME280;11799;47.740;-3.390;2023-03-03T03:38:29;102239.38;;;5.82;72.47
23261;BME280;11799;47.740;-3.390;2023-03-03T03:40:57;102235.84;;;5.83;72.84
23261;BME280;11799;47.740;-3.390;2023-03-03T03:43:23;102239.50;;;5.79;72.47
23261;BME280;11799;47.740;-3.390;2023-03-03T03:45:49;102237.78;;;5.78;72.76
23261;BME280;11799;47.740;-3.390;2023-03-03T03:48:15;102234.34;;;5.77;72.54
23261;BME280;11799;47.740;-3.390;2023-03-03T03:50:46;102243.13;;;5.76;72.43
23261;BME280;11799;47.740;-3.390;2023-03-03T03:53:12;102238.09;;;5.70;71.76
23261;BME280;11799;47.740;-3.390;2023-03-03T03:55:38;102240.75;;;5.69;71.98
23261;BME280;11799;47.740;-3.390;2023-03-03T03:58:04;102236.38;;;5.69;72.42
23261;BME280;11799;47.740;-3.390;2023-03-03T04:00:30;102238.19;;;5.67;72.12
23261;BME280;11799;47.740;-3.390;2023-03-03T04:02:58;102241.78;;;5.64;72.12
23261;BME280;11799;47.740;-3.390;2023-03-03T04:05:24;102239.25;;;5.61;72.46
23261;BME280;11799;47.740;-3.390;2023-03-03T04:07:49;102240.28;;;5.57;72.78
23261;BME280;11799;47.740;-3.390;2023-03-03T04:10:17;102240.44;;;5.53;72.55
23261;BME280;11799;47.740;-3.390;2023-03-03T04:12:43;102241.38;;;5.50;72.79
23261;BME280;11799;47.740;-3.390;2023-03-03T04:15:12;102240.56;;;5.48;73.08
23261;BME280;11799;47.740;-3.390;2023-03-03T04:17:39;102243.34;;;5.44;73.01
23261;BME280;11799;47.740;-3.390;2023-03-03T04:20:06;102248.66;;;5.42;73.24
23261;BME280;11799;47.740;-3.390;2023-03-03T04:22:33;102248.69;;;5.41;73.41
23261;BME280;11799;47.740;-3.390;2023-03-03T04:25:02;102247.78;;;5.42;73.53
23261;BME280;11799;47.740;-3.390;2023-03-03T04:27:32;102244.41;;;5.38;73.56
23261;BME280;11799;47.740;-3.390;2023-03-03T04:29:58;102230.56;;;5.35;73.73
23261;BME280;11799;47.740;-3.390;2023-03-03T04:32:25;102241.94;;;5.34;73.75
23261;BME280;11799;47.740;-3.390;2023-03-03T04:34:51;102236.75;;;5.32;73.90
23261;BME280;11799;47.740;-3.390;2023-03-03T04:37:17;102234.13;;;5.32;73.81
23261;BME280;11799;47.740;-3.390;2023-03-03T04:39:43;102238.66;;;5.27;73.98
23261;BME280;11799;47.740;-3.390;2023-03-03T04:42:08;102237.91;;;5.23;73.94
23261;BME280;11799;47.740;-3.390;2023-03-03T04:44:34;102233.53;;;5.24;73.88
23261;BME280;11799;47.740;-3.390;2023-03-03T04:46:59;102236.19;;;5.22;74.22
23261;BME280;11799;47.740;-3.390;2023-03-03T04:49:25;102235.28;;;5.23;74.11
23261;BME280;11799;47.740;-3.390;2023-03-03T04:51:51;102237.97;;;5.22;74.12
23261;BME280;11799;47.740;-3.390;2023-03-03T04:54:16;102237.25;;;5.18;73.95
23261;BME280;11799;47.740;-3.390;2023-03-03T04:56:42;102238.16;;;5.17;74.08
23261;BME280;11799;47.740;-3.390;2023-03-03T04:59:08;102235.63;;;5.14;74.19
23261;BME280;11799;47.740;-3.390;2023-03-03T05:01:33;102227.88;;;5.11;74.27
23261;BME280;11799;47.740;-3.390;2023-03-03T05:03:59;102236.69;;;5.09;74.22
23261;BME280;11799;47.740;-3.390;2023-03-03T05:06:25;102244.59;;;5.07;74.21
23261;BME280;11799;47.740;-3.390;2023-03-03T05:08:50;102242.88;;;5.06;74.32
23261;BME280;11799;47.740;-3.390;2023-03-03T05:11:16;102247.31;;;5.04;74.25
23261;BME280;11799;47.740;-3.390;2023-03-03T05:13:42;102234.22;;;5.04;74.19
23261;BME280;11799;47.740;-3.390;2023-03-03T05:16:08;102243.88;;;5.02;74.14
23261;BME280;11799;47.740;-3.390;2023-03-03T05:18:33;102243.88;;;5.02;74.53
23261;BME280;11799;47.740;-3.390;2023-03-03T05:21:00;102243.16;;;4.97;74.29
23261;BME280;11799;47.740;-3.390;2023-03-03T05:23:25;102249.44;;;4.91;74.29
23261;BME280;11799;47.740;-3.390;2023-03-03T05:25:51;102255.69;;;4.87;74.93
23261;BME280;11799;47.740;-3.390;2023-03-03T05:28:17;102243.41;;;4.89;75.15
23261;BME280;11799;47.740;-3.390;2023-03-03T05:30:43;102245.25;;;4.86;74.82
23261;BME280;11799;47.740;-3.390;2023-03-03T05:33:12;102249.72;;;4.82;75.17
23261;BME280;11799;47.740;-3.390;2023-03-03T05:35:38;102252.44;;;4.79;75.06
23261;BME280;11799;47.740;-3.390;2023-03-03T05:38:03;102250.72;;;4.78;75.06
23261;BME280;11799;47.740;-3.390;2023-03-03T05:40:29;102251.69;;;4.76;75.27
23261;BME280;11799;47.740;-3.390;2023-03-03T05:42:55;102243.91;;;4.73;75.50
23261;BME280;11799;47.740;-3.390;2023-03-03T05:45:20;102257.09;;;4.70;75.57
23261;BME280;11799;47.740;-3.390;2023-03-03T05:47:51;102259.84;;;4.65;75.48
23261;BME280;11799;47.740;-3.390;2023-03-03T05:50:19;102257.16;;;4.68;75.75
23261;BME280;11799;47.740;-3.390;2023-03-03T05:52:51;102259.72;;;4.70;76.16
23261;BME280;11799;47.740;-3.390;2023-03-03T05:55:18;102257.16;;;4.68;75.86
23261;BME280;11799;47.740;-3.390;2023-03-03T05:57:44;102255.38;;;4.69;76.12
23261;BME280;11799;47.740;-3.390;2023-03-03T06:00:11;102256.28;;;4.68;76.14
23261;BME280;11799;47.740;-3.390;2023-03-03T06:02:38;102251.97;;;4.67;75.93
23261;BME280;11799;47.740;-3.390;2023-03-03T06:05:05;102259.00;;;4.64;75.83
23261;BME280;11799;47.740;-3.390;2023-03-03T06:07:31;102252.91;;;4.64;76.01
23261;BME280;11799;47.740;-3.390;2023-03-03T06:09:56;102263.41;;;4.62;75.88
23261;BME280;11799;47.740;-3.390;2023-03-03T06:12:23;102255.56;;;4.62;75.87
23261;BME280;11799;47.740;-3.390;2023-03-03T06:14:48;102257.28;;;4.63;75.78
23261;BME280;11799;47.740;-3.390;2023-03-03T06:17:14;102258.25;;;4.61;76.11
23261;BME280;11799;47.740;-3.390;2023-03-03T06:19:39;102261.81;;;4.58;75.79
23261;BME280;11799;47.740;-3.390;2023-03-03T06:22:06;102262.63;;;4.60;75.98
23261;BME280;11799;47.740;-3.390;2023-03-03T06:24:32;102261.66;;;4.63;76.18
23261;BME280;11799;47.740;-3.390;2023-03-03T06:26:59;102263.28;;;4.67;76.61
23261;BME280;11799;47.740;-3.390;2023-03-03T06:29:25;102252.78;;;4.69;76.21
23261;BME280;11799;47.740;-3.390;2023-03-03T06:31:51;102260.63;;;4.69;76.48
23261;BME280;11799;47.740;-3.390;2023-03-03T06:34:16;102260.56;;;4.70;76.19
23261;BME280;11799;47.740;-3.390;2023-03-03T06:36:42;102256.16;;;4.72;76.68
23261;BME280;11799;47.740;-3.390;2023-03-03T06:39:07;102252.69;;;4.72;76.66
23261;BME280;11799;47.740;-3.390;2023-03-03T06:41:33;102257.00;;;4.73;76.71
23261;BME280;11799;47.740;-3.390;2023-03-03T06:43:58;102259.56;;;4.74;76.53
23261;BME280;11799;47.740;-3.390;2023-03-03T06:46:25;102256.09;;;4.74;76.72
23261;BME280;11799;47.740;-3.390;2023-03-03T06:48:51;102264.75;;;4.76;76.56
23261;BME280;11799;47.740;-3.390;2023-03-03T06:51:24;102258.59;;;4.78;76.75
23261;BME280;11799;47.740;-3.390;2023-03-03T06:53:54;102265.47;;;4.81;77.35
23261;BME280;11799;47.740;-3.390;2023-03-03T06:56:23;102267.19;;;4.82;77.11
23261;BME280;11799;47.740;-3.390;2023-03-03T06:58:49;102264.56;;;4.82;76.89
23261;BME280;11799;47.740;-3.390;2023-03-03T07:01:17;102274.00;;;4.87;77.27
23261;BME280;11799;47.740;-3.390;2023-03-03T07:03:43;102273.06;;;4.90;77.23
23261;BME280;11799;47.740;-3.390;2023-03-03T07:06:24;102275.53;;;4.94;77.28
23261;BME280;11799;47.740;-3.390;2023-03-03T07:08:51;102276.38;;;4.95;77.38
23261;BME280;11799;47.740;-3.390;2023-03-03T07:11:20;102282.34;;;5.00;77.22
23261;BME280;11799;47.740;-3.390;2023-03-03T07:13:50;102289.25;;;5.03;77.37
23261;BME280;11799;47.740;-3.390;2023-03-03T07:16:17;102295.28;;;5.05;77.34
23261;BME280;11799;47.740;-3.390;2023-03-03T07:18:53;102297.81;;;5.08;77.16
23261;BME280;11799;47.740;-3.390;2023-03-03T07:21:24;102285.44;;;5.13;77.03
23261;BME280;11799;47.740;-3.390;2023-03-03T07:23:52;102288.91;;;5.13;77.04
23261;BME280;11799;47.740;-3.390;2023-03-03T07:26:24;102287.09;;;5.15;77.06
23261;BME280;11799;47.740;-3.390;2023-03-03T07:29:02;102303.56;;;5.19;77.17
23261;BME280;11799;47.740;-3.390;2023-03-03T07:31:33;102306.13;;;5.20;76.79
23261;BME280;11799;47.740;-3.390;2023-03-03T07:34:00;102313.97;;;5.20;76.94
23261;BME280;11799;47.740;-3.390;2023-03-03T07:36:33;102324.34;;;5.23;77.00
23261;BME280;11799;47.740;-3.390;2023-03-03T07:39:02;102328.63;;;5.26;76.83
23261;BME280;11799;47.740;-3.390;2023-03-03T07:41:30;102332.06;;;5.28;76.77
23261;BME280;11799;47.740;-3.390;2023-03-03T07:44:11;102333.69;;;5.32;76.79
23261;BME280;11799;47.740;-3.390;2023-03-03T07:46:47;102339.72;;;5.34;76.58
23261;BME280;11799;47.740;-3.390;2023-03-03T07:49:27;102343.16;;;5.36;76.92
23261;BME280;11799;47.740;-3.390;2023-03-03T07:51:56;102346.59;;;5.38;76.70
23261;BME280;11799;47.740;-3.390;2023-03-03T07:54:37;102341.25;;;5.41;76.60
23261;BME280;11799;47.740;-3.390;2023-03-03T07:59:45;102347.09;;;5.49;76.30
23261;BME280;11799;47.740;-3.390;2023-03-03T08:04:53;102347.72;;;5.57;75.74
23261;BME280;11799;47.740;-3.390;2023-03-03T08:07:21;102348.53;;;5.59;75.57
23261;BME280;11799;47.740;-3.390;2023-03-03T08:12:37;102355.19;;;5.70;75.12
23261;BME280;11799;47.740;-3.390;2023-03-03T08:15:27;102363.69;;;5.76;74.90
23261;BME280;11799;47.740;-3.390;2023-03-03T08:17:55;102367.91;;;5.80;74.52
23261;BME280;11799;47.740;-3.390;2023-03-03T08:22:58;102365.94;;;5.87;74.66
23261;BME280;11799;47.740;-3.390;2023-03-03T08:25:24;102371.97;;;5.90;73.97
23261;BME280;11799;47.740;-3.390;2023-03-03T08:27:49;102371.00;;;5.93;74.63
23261;BME280;11799;47.740;-3.390;2023-03-03T08:30:15;102375.19;;;5.99;74.48
23261;BME280;11799;47.740;-3.390;2023-03-03T08:32:41;102376.84;;;6.01;74.11
23261;BME280;11799;47.740;-3.390;2023-03-03T08:35:06;102381.13;;;6.04;73.72
23261;BME280;11799;47.740;-3.390;2023-03-03T08:37:32;102380.16;;;6.06;73.33
23261;BME280;11799;47.740;-3.390;2023-03-03T08:39:57;102376.53;;;6.10;73.41
23261;BME280;11799;47.740;-3.390;2023-03-03T08:42:23;102381.69;;;6.13;73.07
23261;BME280;11799;47.740;-3.390;2023-03-03T08:44:49;102378.16;;;6.14;73.35
23261;BME280;11799;47.740;-3.390;2023-03-03T08:47:14;102384.09;;;6.19;73.18
23261;BME280;11799;47.740;-3.390;2023-03-03T08:49:40;102376.13;;;6.22;73.06
23261;BME280;11799;47.740;-3.390;2023-03-03T08:52:05;102377.78;;;6.25;72.72
23261;BME280;11799;47.740;-3.390;2023-03-03T08:54:31;102373.28;;;6.28;72.79
23261;BME280;11799;47.740;-3.390;2023-03-03T08:56:57;102377.56;;;6.31;72.54
23261;BME280;11799;47.740;-3.390;2023-03-03T08:59:22;102375.75;;;6.33;72.44
23261;BME280;11799;47.740;-3.390;2023-03-03T09:01:48;102377.38;;;6.36;72.63
23261;BME280;11799;47.740;-3.390;2023-03-03T09:04:13;102373.78;;;6.38;72.66
23261;BME280;11799;47.740;-3.390;2023-03-03T09:06:39;102378.88;;;6.43;72.79
23261;BME280;11799;47.740;-3.390;2023-03-03T09:09:05;102383.16;;;6.45;71.93
23261;BME280;11799;47.740;-3.390;2023-03-03T09:11:30;102382.19;;;6.48;72.71
23261;BME280;11799;47.740;-3.390;2023-03-03T09:14:12;102383.00;;;6.50;72.03
23261;BME280;11799;47.740;-3.390;2023-03-03T09:16:41;102379.34;;;6.54;72.21
23261;BME280;11799;47.740;-3.390;2023-03-03T09:19:22;102382.66;;;6.59;71.80
23261;BME280;11799;47.740;-3.390;2023-03-03T09:21:49;102371.19;;;6.61;71.67
23261;BME280;11799;47.740;-3.390;2023-03-03T09:24:23;102376.34;;;6.65;70.93
23261;BME280;11799;47.740;-3.390;2023-03-03T09:26:49;102378.78;;;6.69;71.73
23261;BME280;11799;47.740;-3.390;2023-03-03T09:29:28;102378.78;;;6.69;70.93
23261;BME280;11799;47.740;-3.390;2023-03-03T09:31:56;102383.03;;;6.73;70.73
23261;BME280;11799;47.740;-3.390;2023-03-03T09:34:29;102386.38;;;6.77;71.14
23261;BME280;11799;47.740;-3.390;2023-03-03T09:37:35;102388.84;;;6.81;70.34
23261;BME280;11799;47.740;-3.390;2023-03-03T09:40:29;102396.50;;;6.87;70.88
23261;BME280;11799;47.740;-3.390;2023-03-03T09:43:08;102387.38;;;6.96;70.83
23261;BME280;11799;47.740;-3.390;2023-03-03T09:45:40;102381.78;;;7.05;69.90
23261;BME280;11799;47.740;-3.390;2023-03-03T09:50:43;102387.50;;;7.16;68.72
23261;BME280;11799;47.740;-3.390;2023-03-03T10:10:02;102398.56;;;7.68;66.10
23261;BME280;11799;47.740;-3.390;2023-03-03T10:15:42;102395.19;;;7.86;66.19
23261;BME280;11799;47.740;-3.390;2023-03-03T10:21:01;102402.25;;;8.06;65.72
23261;BME280;11799;47.740;-3.390;2023-03-03T10:29:33;102405.53;;;8.52;63.77
23261;BME280;11799;47.740;-3.390;2023-03-03T10:38:00;102406.38;;;8.91;64.08
23261;BME280;11799;47.740;-3.390;2023-03-03T10:40:39;102407.03;;;8.97;62.68
23261;BME280;11799;47.740;-3.390;2023-03-03T10:51:28;102408.19;;;9.46;60.64
23261;BME280;11799;47.740;-3.390;2023-03-03T11:05:05;102409.81;;;9.67;58.86
23261;BME280;11799;47.740;-3.390;2023-03-03T11:07:57;102409.09;;;9.64;58.17
23261;BME280;11799;47.740;-3.390;2023-03-03T11:15:54;102420.25;;;9.51;58.09
23261;BME280;11799;47.740;-3.390;2023-03-03T11:18:40;102420.69;;;9.42;57.99
23261;BME280;11799;47.740;-3.390;2023-03-03T11:24:32;102422.47;;;9.42;58.93
23261;BME280;11799;47.740;-3.390;2023-03-03T11:27:29;102426.38;;;9.52;59.38
23261;BME280;11799;47.740;-3.390;2023-03-03T11:33:21;102402.94;;;9.82;58.26
23261;BME280;11799;47.740;-3.390;2023-03-03T11:44:35;102415.72;;;10.07;57.47
23261;BME280;11799;47.740;-3.390;2023-03-03T11:55:36;102414.22;;;9.84;57.83
23261;BME280;11799;47.740;-3.390;2023-03-03T11:58:12;102409.22;;;9.79;57.73
23261;BME280;11799;47.740;-3.390;2023-03-03T12:03:19;102415.94;;;9.68;58.07
23261;BME280;11799;47.740;-3.390;2023-03-03T12:08:38;102412.81;;;9.59;58.78
23261;BME280;11799;47.740;-3.390;2023-03-03T12:11:18;102412.97;;;9.56;58.25
23261;BME280;11799;47.740;-3.390;2023-03-03T12:16:22;102409.75;;;9.50;58.70
23261;BME280;11799;47.740;-3.390;2023-03-03T12:24:56;102409.84;;;9.48;58.17
23261;BME280;11799;47.740;-3.390;2023-03-03T12:27:35;102402.84;;;9.47;58.36
23261;BME280;11799;47.740;-3.390;2023-03-03T12:35:30;102392.38;;;9.82;58.19
23261;BME280;11799;47.740;-3.390;2023-03-03T12:40:58;102385.38;;;9.98;56.68
23261;BME280;11799;47.740;-3.390;2023-03-03T12:43:38;102382.75;;;9.98;56.54
23261;BME280;11799;47.740;-3.390;2023-03-03T12:46:18;102379.25;;;9.98;56.11
23261;BME280;11799;47.740;-3.390;2023-03-03T12:48:46;102374.13;;;9.94;56.41
23261;BME280;11799;47.740;-3.390;2023-03-03T12:51:47;102367.44;;;10.05;57.03
23261;BME280;11799;47.740;-3.390;2023-03-03T13:03:05;102349.47;;;10.46;55.52
23261;BME280;11799;47.740;-3.390;2023-03-03T13:08:29;102338.50;;;10.53;55.82
23261;BME280;11799;47.740;-3.390;2023-03-03T13:12:07;102341.38;;;10.49;54.29
23261;BME280;11799;47.740;-3.390;2023-03-03T13:14:21;102332.44;;;10.51;54.53
23261;BME280;11799;47.740;-3.390;2023-03-03T13:17:16;102326.91;;;10.56;54.64
23261;BME280;11799;47.740;-3.390;2023-03-03T13:20:02;102322.75;;;10.68;54.55
23261;BME280;11799;47.740;-3.390;2023-03-03T13:22:34;102327.03;;;10.70;53.70
23261;BME280;11799;47.740;-3.390;2023-03-03T13:25:07;102315.69;;;10.68;54.29
23261;BME280;11799;47.740;-3.390;2023-03-03T13:27:42;102312.72;;;10.74;54.21
23261;BME280;11799;47.740;-3.390;2023-03-03T13:30:21;102316.03;;;10.78;53.82
23261;BME280;11799;47.740;-3.390;2023-03-03T13:32:53;102307.09;;;10.80;53.48
23261;BME280;11799;47.740;-3.390;2023-03-03T13:35:41;102308.03;;;10.79;52.38
23261;BME280;11799;47.740;-3.390;2023-03-03T13:38:11;102306.06;;;10.83;52.06
23261;BME280;11799;47.740;-3.390;2023-03-03T13:40:47;102301.31;;;10.89;52.46
23261;BME280;11799;47.740;-3.390;2023-03-03T13:43:30;102299.44;;;10.91;52.80
23261;BME280;11799;47.740;-3.390;2023-03-03T13:46:54;102297.72;;;10.90;52.48
23261;BME280;11799;47.740;-3.390;2023-03-03T13:49:45;102300.38;;;10.90;52.31
23261;BME280;11799;47.740;-3.390;2023-03-03T13:52:09;102293.38;;;10.89;52.04
23261;BME280;11799;47.740;-3.390;2023-03-03T14:02:39;102289.44;;;10.97;52.75
23261;BME280;11799;47.740;-3.390;2023-03-03T14:05:19;102287.47;;;11.00;54.09
23261;BME280;11799;47.740;-3.390;2023-03-03T14:10:21;102290.59;;;11.07;52.89
23261;BME280;11799;47.740;-3.390;2023-03-03T14:15:25;102291.66;;;10.88;52.51
23261;BME280;11799;47.740;-3.390;2023-03-03T14:20:51;102286.13;;;10.77;53.73
23261;BME280;11799;47.740;-3.390;2023-03-03T14:28:21;102283.41;;;10.79;52.40
23261;BME280;11799;47.740;-3.390;2023-03-03T14:30:47;102285.00;;;10.81;53.17
23261;BME280;11799;47.740;-3.390;2023-03-03T14:35:44;102275.38;;;10.80;51.98
23261;BME280;11799;47.740;-3.390;2023-03-03T14:38:17;102284.84;;;10.84;53.16
23261;BME280;11799;47.740;-3.390;2023-03-03T14:40:44;102288.25;;;10.86;52.12
23261;BME280;11799;47.740;-3.390;2023-03-03T14:43:25;102285.53;;;10.88;52.21
23261;BME280;11799;47.740;-3.390;2023-03-03T14:45:55;102289.19;;;10.85;52.05
23261;BME280;11799;47.740;-3.390;2023-03-03T14:48:27;102269.75;;;10.86;51.70
23261;BME280;11799;47.740;-3.390;2023-03-03T14:51:43;102272.91;;;10.93;51.54
23261;BME280;11799;47.740;-3.390;2023-03-03T14:53:43;102276.31;;;10.95;51.83
23261;BME280;11799;47.740;-3.390;2023-03-03T14:58:54;102266.31;;;11.00;51.25
23261;BME280;11799;47.740;-3.390;2023-03-03T15:01:37;102270.75;;;11.00;51.09
23261;BME280;11799;47.740;-3.390;2023-03-03T15:06:55;102258.13;;;11.05;52.10
23261;BME280;11799;47.740;-3.390;2023-03-03T15:09:38;102260.69;;;11.06;51.65
23261;BME280;11799;47.740;-3.390;2023-03-03T15:12:22;102270.41;;;11.06;50.66
23261;BME280;11799;47.740;-3.390;2023-03-03T15:14:51;102261.03;;;11.00;50.61
23261;BME280;11799;47.740;-3.390;2023-03-03T15:17:27;102265.28;;;11.03;51.46
23261;BME280;11799;47.740;-3.390;2023-03-03T15:25:37;102253.31;;;10.97;53.17
23261;BME280;11799;47.740;-3.390;2023-03-03T15:30:50;102264.91;;;10.95;51.17
23261;BME280;11799;47.740;-3.390;2023-03-03T15:41:50;102256.88;;;10.80;52.43
23261;BME280;11799;47.740;-3.390;2023-03-03T15:44:23;102264.91;;;10.79;52.18
23261;BME280;11799;47.740;-3.390;2023-03-03T15:52:58;102262.34;;;10.77;52.78
23261;BME280;11799;47.740;-3.390;2023-03-03T16:03:50;102253.97;;;10.69;53.49
23261;BME280;11799;47.740;-3.390;2023-03-03T16:07:21;102255.00;;;10.67;55.02
23261;BME280;11799;47.740;-3.390;2023-03-03T16:12:26;102259.00;;;10.58;54.08
23261;BME280;11799;47.740;-3.390;2023-03-03T16:15:19;102267.25;;;10.52;54.20
23261;BME280;11799;47.740;-3.390;2023-03-03T16:25:53;102260.13;;;10.38;54.82
23261;BME280;11799;47.740;-3.390;2023-03-03T16:28:26;102262.00;;;10.36;54.66
23261;BME280;11799;47.740;-3.390;2023-03-03T16:31:06;102262.31;;;10.30;54.79
23261;BME280;11799;47.740;-3.390;2023-03-03T16:36:29;102275.06;;;10.22;54.91
23261;BME280;11799;47.740;-3.390;2023-03-03T16:39:12;102268.28;;;10.16;54.96
23261;BME280;11799;47.740;-3.390;2023-03-03T16:44:28;102273.97;;;10.09;55.35
23261;BME280;11799;47.740;-3.390;2023-03-03T16:55:31;102277.66;;;9.89;55.81
23261;BME280;11799;47.740;-3.390;2023-03-03T16:58:21;102281.28;;;9.86;56.39